Onagoity, Argentina
Current Conditions -  °F | °C
As of 8:00 PM on Friday 24 Oct 2014 (Local Time) from SAOC Reporting Station
Scattered Clouds Scattered Clouds  
Wind Chill: 82°   Ceiling: Unl
Heat Index: 82°   Visibility: 6mi
Dew Point: 57°   Wind: 14mph
Humidity: 42%   Direction: 20°NNE
Pressure: 29.85"   Gusts: NA
Location:  34.78°S, 63.67°W
Report Text: SAOC 242300Z 02012KT 9999 SCT030 FEW040CB28/14 Q1011
Loading
Personal Weather Stations






























Interactive Weather Map
Tropical Storm Tracking
New forecast layout! Learn more

10-Day Weather Forecast

Advertisements
Track Severe Weather on mobile